Time;durP1;ratioP1;P1;durP2;ratioP2;P2;SDS_P1;SDS_P2;PMS_P1;PMS_P2;Temp;Humidity;BMP_temperature;BMP_pressure;BME280_temperature;BME280_humidity;BME280_pressure;Samples;Min_cycle;Max_cycle;Signal;HPM_P1;HPM_P2
2022/10/30 00:00:41;;;;;;;16.40;7.97;;;14.20;99.90;;;;;;5098931;28;20209;-70
2022/10/30 00:03:15;;;;;;;12.40;7.27;;;14.10;99.90;;;;;;5088024;28;20209;-74
2022/10/30 00:05:46;;;;;;;12.65;7.38;;;14.10;99.90;;;;;;5096262;28;20205;-73
2022/10/30 00:08:15;;;;;;;14.82;7.72;;;14.20;99.90;;;;;;5097482;28;20185;-72
2022/10/30 00:10:43;;;;;;;14.03;7.50;;;14.10;99.90;;;;;;5089634;28;20205;-74
2022/10/30 00:13:11;;;;;;;13.90;7.37;;;14.10;99.90;;;;;;5100489;28;20225;-72
2022/10/30 00:15:38;;;;;;;18.55;7.68;;;14.20;99.90;;;;;;5086878;28;20696;-73
2022/10/30 00:18:05;;;;;;;16.00;7.73;;;14.20;99.90;;;;;;5085027;28;20727;-73
2022/10/30 00:20:35;;;;;;;14.20;6.90;;;14.20;99.90;;;;;;5098878;28;20247;-73
2022/10/30 00:23:02;;;;;;;12.75;7.72;;;14.10;99.90;;;;;;5097461;28;20297;-73
2022/10/30 00:25:29;;;;;;;13.23;7.25;;;14.20;99.90;;;;;;5071491;28;20301;-73
2022/10/30 00:27:56;;;;;;;15.75;7.40;;;14.20;99.90;;;;;;5077249;28;20204;-73
2022/10/30 00:30:23;;;;;;;14.80;7.18;;;14.20;99.90;;;;;;5095011;28;20380;-72
2022/10/30 00:32:50;;;;;;;19.85;8.25;;;14.20;99.90;;;;;;5098168;28;20196;-71
2022/10/30 00:35:17;;;;;;;14.83;7.57;;;14.30;99.90;;;;;;5096384;28;20285;-71
2022/10/30 00:37:44;;;;;;;13.00;8.18;;;14.30;99.90;;;;;;5064265;28;20225;-70
2022/10/30 00:40:15;;;;;;;23.23;9.68;;;14.30;99.90;;;;;;5085649;28;20207;-73
2022/10/30 00:42:42;;;;;;;15.05;9.88;;;14.30;99.90;;;;;;5095117;28;20224;-73
2022/10/30 00:45:12;;;;;;;17.42;9.32;;;14.30;99.90;;;;;;5082920;28;20205;-74
2022/10/30 00:47:52;;;;;;;16.33;9.20;;;14.30;99.90;;;;;;5079566;28;20292;-73
2022/10/30 00:50:28;;;;;;;17.10;8.80;;;14.30;99.90;;;;;;5076522;28;20193;-71
2022/10/30 00:53:10;;;;;;;16.23;9.30;;;14.30;99.90;;;;;;5063443;28;20205;-73
2022/10/30 00:55:58;;;;;;;15.82;8.82;;;14.30;99.90;;;;;;5079022;28;20206;-73
2022/10/30 00:58:58;;;;;;;14.77;9.18;;;14.30;99.90;;;;;;5096557;28;20216;-73
2022/10/30 01:01:27;;;;;;;18.52;9.00;;;14.30;99.90;;;;;;5080081;28;20210;-70
2022/10/30 01:03:56;;;;;;;18.33;9.68;;;14.30;99.90;;;;;;5097673;28;20209;-71
2022/10/30 01:06:24;;;;;;;13.73;8.57;;;14.30;99.90;;;;;;5100671;28;20224;-71
2022/10/30 01:08:54;;;;;;;13.60;8.68;;;14.30;99.90;;;;;;5072001;28;20293;-74
2022/10/30 01:11:26;;;;;;;12.98;8.57;;;14.30;99.90;;;;;;5082908;28;20209;-74
2022/10/30 01:13:56;;;;;;;15.20;8.07;;;14.30;99.90;;;;;;5085089;28;20232;-74
2022/10/30 01:16:23;;;;;;;15.40;8.90;;;14.30;99.90;;;;;;5089255;28;20656;-74
2022/10/30 01:19:03;;;;;;;16.90;8.38;;;14.30;99.90;;;;;;5072055;28;20255;-74
2022/10/30 01:21:43;;;;;;;13.88;8.35;;;14.20;99.90;;;;;;5082016;28;20254;-73
2022/10/30 01:24:38;;;;;;;12.15;8.13;;;14.20;99.90;;;;;;5091006;28;20316;-74
2022/10/30 01:27:23;;;;;;;15.10;8.07;;;14.10;99.90;;;;;;5090034;28;20789;-74
2022/10/30 01:30:14;;;;;;;15.15;8.27;;;14.10;99.90;;;;;;5090577;28;20193;-74
2022/10/30 01:32:59;;;;;;;15.20;7.90;;;14.00;99.90;;;;;;5071961;28;20224;-74
2022/10/30 01:35:45;;;;;;;16.15;8.18;;;14.00;1.00;;;;;;5065960;28;20251;-74
2022/10/30 01:38:14;;;;;;;17.02;9.07;;;14.10;1.00;;;;;;5085269;28;20202;-73
2022/10/30 01:40:44;;;;;;;14.10;7.70;;;14.10;1.00;;;;;;5072673;28;20744;-74
2022/10/30 01:43:11;;;;;;;13.80;8.77;;;14.10;1.00;;;;;;5087895;28;20220;-74
2022/10/30 01:46:00;;;;;;;14.10;9.10;;;14.20;1.00;;;;;;5101026;28;20875;-74
2022/10/30 01:48:56;;;;;;;21.02;10.73;;;14.10;1.00;;;;;;5084643;28;20281;-75
2022/10/30 01:51:47;;;;;;;15.27;9.27;;;14.10;1.00;;;;;;5071290;28;20263;-74
2022/10/30 01:54:20;;;;;;;15.10;9.07;;;14.00;1.00;;;;;;5090767;28;20770;-74
2022/10/30 01:57:16;;;;;;;20.23;13.70;;;13.90;1.00;;;;;;5083336;28;20209;-74
2022/10/30 01:59:55;;;;;;;24.03;12.53;;;13.90;1.00;;;;;;5084204;28;20197;-74
2022/10/30 02:02:23;;;;;;;11.23;7.50;;;13.90;1.00;;;;;;5098550;28;20445;-74
2022/10/30 02:04:53;;;;;;;14.40;7.93;;;13.90;1.00;;;;;;5083209;28;20736;-74
2022/10/30 02:07:20;;;;;;;14.20;8.47;;;13.80;1.00;;;;;;5083354;28;20246;-71
2022/10/30 02:09:53;;;;;;;19.05;10.35;;;13.80;1.00;;;;;;5067665;28;20803;-70
2022/10/30 02:12:21;;;;;;;15.63;7.93;;;13.80;1.00;;;;;;5067059;28;20292;-71
2022/10/30 02:14:56;;;;;;;16.57;7.30;;;13.70;1.00;;;;;;5098010;28;20198;-73
2022/10/30 02:17:24;;;;;;;22.50;12.63;;;13.60;1.00;;;;;;5089446;28;20196;-75
2022/10/30 02:19:51;;;;;;;15.50;10.43;;;13.60;94.40;;;;;;5096366;28;20198;-75
2022/10/30 02:22:18;;;;;;;13.67;7.37;;;13.70;1.00;;;;;;5081359;28;20301;-75
2022/10/30 02:24:46;;;;;;;15.57;6.93;;;13.70;1.00;;;;;;5065350;28;20217;-75
2022/10/30 02:27:13;;;;;;;15.27;7.13;;;13.70;1.00;;;;;;5089431;28;20232;-74
2022/10/30 02:29:40;;;;;;;15.77;7.67;;;13.60;1.00;;;;;;5084995;28;20657;-75
2022/10/30 02:32:07;;;;;;;12.15;8.40;;;13.60;1.00;;;;;;5082555;28;20674;-70
2022/10/30 02:34:37;;;;;;;15.13;8.00;;;13.50;1.00;;;;;;5087412;28;20241;-69
2022/10/30 02:37:04;;;;;;;12.03;7.83;;;13.50;1.00;;;;;;5099646;28;20225;-73
2022/10/30 02:39:30;;;;;;;16.95;8.07;;;13.40;1.00;;;;;;5102075;28;20206;-72
2022/10/30 02:42:00;;;;;;;15.63;7.83;;;13.50;1.00;;;;;;5099434;28;20190;-72
2022/10/30 02:44:28;;;;;;;14.33;7.77;;;13.50;1.00;;;;;;5080418;28;20202;-73
2022/10/30 02:46:55;;;;;;;19.17;8.27;;;13.50;1.00;;;;;;5080098;28;20198;-72
2022/10/30 02:49:22;;;;;;;19.13;7.67;;;13.60;1.00;;;;;;5097773;28;20190;-72
2022/10/30 02:51:50;;;;;;;19.92;7.93;;;13.60;1.00;;;;;;5071091;28;20215;-73
2022/10/30 02:54:17;;;;;;;14.30;8.03;;;13.50;1.00;;;;;;5065461;28;20218;-72
2022/10/30 02:56:45;;;;;;;19.77;7.60;;;13.40;1.00;;;;;;5064840;28;20250;-74
2022/10/30 02:59:12;;;;;;;16.27;8.20;;;13.40;1.00;;;;;;5087069;28;20205;-77
2022/10/30 03:01:39;;;;;;;14.97;8.03;;;13.30;1.00;;;;;;5079832;28;20255;-75
2022/10/30 03:04:07;;;;;;;12.17;7.53;;;13.30;1.00;;;;;;5079415;28;20646;-74
2022/10/30 03:06:34;;;;;;;19.53;8.23;;;13.20;1.00;;;;;;5094650;28;20273;-78
2022/10/30 03:09:02;;;;;;;12.43;7.10;;;13.20;1.00;;;;;;5085098;28;20201;-76
2022/10/30 03:11:28;;;;;;;17.43;6.90;;;13.20;1.00;;;;;;5083228;28;20205;-73
2022/10/30 03:13:55;;;;;;;13.57;9.03;;;13.10;1.00;;;;;;5092415;28;20204;-72
2022/10/30 03:16:25;;;;;;;19.97;8.27;;;13.00;57.90;;;;;;5091876;28;20215;-72
2022/10/30 03:18:54;;;;;;;17.67;7.13;;;12.90;99.90;;;;;;5081363;28;20296;-72
2022/10/30 03:21:24;;;;;;;12.93;7.20;;;12.90;99.90;;;;;;5085343;28;20201;-72
2022/10/30 03:23:51;;;;;;;15.10;7.43;;;12.80;1.00;;;;;;5082160;28;20267;-72
2022/10/30 03:26:19;;;;;;;16.13;8.23;;;12.70;1.00;;;;;;5102168;28;20337;-71
2022/10/30 03:28:49;;;;;;;14.63;7.20;;;12.70;1.00;;;;;;5098214;28;20535;-75
2022/10/30 03:31:18;;;;;;;17.57;8.67;;;12.70;1.00;;;;;;5069940;28;20205;-74
2022/10/30 03:33:50;;;;;;;15.80;7.50;;;12.70;1.00;;;;;;5098068;28;20198;-73
2022/10/30 03:36:17;;;;;;;12.40;7.40;;;12.70;1.00;;;;;;5086749;28;20309;-73
2022/10/30 03:38:45;;;;;;;15.37;7.37;;;12.70;1.00;;;;;;5098330;28;20186;-75
2022/10/30 03:41:15;;;;;;;13.87;7.27;;;12.60;1.00;;;;;;5093483;28;20204;-74
2022/10/30 03:43:43;;;;;;;14.63;7.13;;;12.60;1.00;;;;;;5085237;28;20217;-73
2022/10/30 03:46:10;;;;;;;11.80;7.43;;;12.70;99.90;;;;;;5102592;28;20198;-72
2022/10/30 03:48:37;;;;;;;12.27;6.93;;;12.60;99.90;;;;;;5069606;28;20206;-71
2022/10/30 03:51:04;;;;;;;12.87;7.40;;;12.60;99.90;;;;;;5083915;28;20198;-72
2022/10/30 03:53:33;;;;;;;14.27;7.57;;;12.50;99.90;;;;;;5075406;28;20194;-72
2022/10/30 03:56:03;;;;;;;13.60;7.30;;;12.50;1.00;;;;;;5084353;28;20210;-72
2022/10/30 03:58:48;;;;;;;18.10;7.30;;;12.40;1.00;;;;;;5081002;28;20406;-69
2022/10/30 04:01:19;;;;;;;20.03;8.77;;;12.40;1.00;;;;;;5087947;28;20226;-68
2022/10/30 04:03:52;;;;;;;14.30;8.80;;;12.40;1.00;;;;;;5067175;28;20235;-68
2022/10/30 04:06:19;;;;;;;15.50;8.30;;;12.30;1.00;;;;;;5080546;28;20201;-68
2022/10/30 04:08:47;;;;;;;20.20;8.40;;;12.30;1.00;;;;;;5097473;28;20190;-68
2022/10/30 04:11:14;;;;;;;12.27;8.17;;;12.30;1.00;;;;;;5080353;28;20185;-71
2022/10/30 04:13:41;;;;;;;16.77;8.37;;;12.30;1.00;;;;;;5086272;28;20609;-70
2022/10/30 04:16:08;;;;;;;17.13;9.00;;;12.20;1.00;;;;;;5071394;28;20663;-71
2022/10/30 04:18:35;;;;;;;15.90;8.10;;;12.20;1.00;;;;;;5072018;28;20560;-70
2022/10/30 04:21:01;;;;;;;15.53;7.70;;;12.20;1.00;;;;;;5087613;28;20197;-67
2022/10/30 04:23:30;;;;;;;14.90;7.53;;;12.20;1.00;;;;;;5070747;28;20197;-68
2022/10/30 04:26:00;;;;;;;16.03;7.40;;;12.20;1.00;;;;;;5079381;28;20254;-67
2022/10/30 04:28:27;;;;;;;11.20;6.80;;;12.10;1.00;;;;;;5086939;28;20198;-68
2022/10/30 04:30:55;;;;;;;14.10;7.93;;;12.10;1.00;;;;;;5099246;28;21171;-68
2022/10/30 04:33:24;;;;;;;9.53;7.13;;;12.10;1.00;;;;;;5080747;28;20189;-68
2022/10/30 04:35:51;;;;;;;14.23;7.87;;;12.10;1.00;;;;;;5078931;28;20691;-69
2022/10/30 04:38:19;;;;;;;13.83;7.87;;;12.00;1.00;;;;;;5081754;28;20665;-68
2022/10/30 04:40:47;;;;;;;19.30;8.10;;;12.00;1.00;;;;;;5091100;28;20194;-67
2022/10/30 04:43:15;;;;;;;12.37;8.00;;;12.00;1.00;;;;;;5089289;28;20202;-68
2022/10/30 04:45:46;;;;;;;14.87;8.50;;;12.00;1.00;;;;;;5084119;28;20277;-68
2022/10/30 04:48:16;;;;;;;11.40;7.40;;;12.00;1.00;;;;;;5091693;28;20194;-68
2022/10/30 04:50:44;;;;;;;15.03;8.30;;;11.90;1.00;;;;;;5074027;28;20198;-68
2022/10/30 04:53:18;;;;;;;16.20;8.10;;;11.90;1.00;;;;;;5066171;28;20465;-68
2022/10/30 04:55:52;;;;;;;12.60;7.80;;;11.80;1.00;;;;;;5086547;28;20202;-68
2022/10/30 04:58:19;;;;;;;13.53;7.70;;;11.80;1.00;;;;;;5089864;28;20190;-68
2022/10/30 05:00:52;;;;;;;15.07;8.53;;;11.80;1.00;;;;;;5099389;28;20255;-68
2022/10/30 05:03:23;;;;;;;12.73;7.73;;;11.70;1.00;;;;;;5073641;28;20718;-69
2022/10/30 05:06:01;;;;;;;13.90;8.07;;;11.60;1.00;;;;;;5066327;28;20660;-69
2022/10/30 05:08:29;;;;;;;10.70;7.70;;;11.70;1.00;;;;;;5088487;28;20253;-69
2022/10/30 05:10:58;;;;;;;19.43;8.23;;;11.60;1.00;;;;;;5086878;28;20216;-68
2022/10/30 05:13:28;;;;;;;14.40;7.90;;;11.60;1.00;;;;;;5089527;28;20246;-68
2022/10/30 05:15:56;;;;;;;12.10;7.77;;;11.60;1.00;;;;;;5102104;28;20194;-67
2022/10/30 05:18:23;;;;;;;15.97;7.80;;;11.60;1.00;;;;;;5090531;28;20195;-69
2022/10/30 05:20:50;;;;;;;13.83;7.73;;;11.60;1.00;;;;;;5082233;28;20805;-69
2022/10/30 05:23:17;;;;;;;14.27;7.23;;;11.50;1.00;;;;;;5082378;28;20224;-68
2022/10/30 05:25:45;;;;;;;10.73;6.93;;;11.50;1.00;;;;;;5066333;28;20233;-69
2022/10/30 05:28:14;;;;;;;15.83;7.37;;;11.50;1.00;;;;;;5084084;28;20224;-71
2022/10/30 05:30:52;;;;;;;13.27;8.00;;;11.40;1.00;;;;;;5073869;28;21271;-70
2022/10/30 05:33:37;;;;;;;11.70;6.73;;;11.40;34.90;;;;;;5086111;28;21030;-70
2022/10/30 05:36:05;;;;;;;10.23;7.40;;;11.30;1.00;;;;;;5073209;28;20242;-67
2022/10/30 05:38:32;;;;;;;13.63;7.37;;;11.30;1.00;;;;;;5099943;28;20190;-67
2022/10/30 05:40:59;;;;;;;12.53;7.13;;;11.30;1.00;;;;;;5088289;28;20734;-68
2022/10/30 05:43:26;;;;;;;14.10;6.97;;;11.30;1.00;;;;;;5101692;28;20680;-68
2022/10/30 05:45:53;;;;;;;17.07;7.87;;;11.30;1.00;;;;;;5099836;28;20218;-67
2022/10/30 05:48:20;;;;;;;14.57;6.97;;;11.30;1.00;;;;;;5073102;28;20197;-67
2022/10/30 05:50:47;;;;;;;13.17;7.37;;;11.30;1.00;;;;;;5064327;28;20199;-67
2022/10/30 05:53:27;;;;;;;13.03;7.53;;;11.20;1.00;;;;;;5082205;28;20198;-66
2022/10/30 05:55:56;;;;;;;12.97;7.33;;;11.20;1.00;;;;;;5087545;28;20681;-66
2022/10/30 05:58:26;;;;;;;13.70;7.23;;;11.20;1.00;;;;;;5081752;28;20197;-66
2022/10/30 06:00:55;;;;;;;14.87;7.23;;;11.10;1.00;;;;;;5081450;28;20201;-67
2022/10/30 06:03:38;;;;;;;20.07;6.90;;;11.10;1.00;;;;;;5081962;28;20878;-66
2022/10/30 06:06:06;;;;;;;12.77;7.80;;;11.00;1.00;;;;;;5073034;28;20307;-68
2022/10/30 06:08:32;;;;;;;14.37;7.33;;;11.00;1.00;;;;;;5079279;28;20561;-69
2022/10/30 06:11:05;;;;;;;15.23;7.73;;;10.90;8.00;;;;;;5089161;28;20217;-68
2022/10/30 06:13:39;;;;;;;10.57;6.80;;;10.90;38.10;;;;;;5070083;28;20202;-68
2022/10/30 06:16:11;;;;;;;13.90;7.70;;;10.90;83.90;;;;;;5068863;28;20225;-66
2022/10/30 06:18:56;;;;;;;15.93;7.80;;;10.90;88.20;;;;;;5100215;28;20204;-67
2022/10/30 06:21:24;;;;;;;13.17;7.60;;;10.90;99.90;;;;;;5082556;28;20198;-66
2022/10/30 06:24:14;;;;;;;10.67;6.93;;;10.80;99.90;;;;;;5058185;28;20218;-67
2022/10/30 06:27:00;;;;;;;12.93;7.77;;;10.90;99.90;;;;;;5089620;28;20273;-68
2022/10/30 06:29:28;;;;;;;18.67;7.80;;;10.90;1.00;;;;;;5082224;28;20267;-67
2022/10/30 06:31:55;;;;;;;13.77;8.37;;;11.00;1.00;;;;;;5070579;28;20267;-69
2022/10/30 06:34:26;;;;;;;17.40;7.00;;;10.90;1.00;;;;;;5067779;28;20195;-68
2022/10/30 06:36:53;;;;;;;15.10;7.07;;;10.90;44.40;;;;;;5097421;28;20217;-69
2022/10/30 06:39:20;;;;;;;13.50;6.83;;;11.00;9.90;;;;;;5086817;28;20200;-68
2022/10/30 06:42:06;;;;;;;14.53;7.00;;;11.00;1.00;;;;;;5099582;28;20283;-70
2022/10/30 06:44:53;;;;;;;13.83;7.07;;;11.20;1.00;;;;;;5099556;28;20407;-68
2022/10/30 06:47:20;;;;;;;13.80;6.77;;;11.20;1.00;;;;;;5082382;28;20195;-69
2022/10/30 06:49:47;;;;;;;17.00;7.17;;;11.40;1.00;;;;;;5082043;28;20292;-68
2022/10/30 06:52:14;;;;;;;13.10;6.77;;;11.50;1.00;;;;;;5082817;28;20198;-70
2022/10/30 06:54:42;;;;;;;11.93;6.67;;;11.60;99.90;;;;;;5098073;28;20239;-70
2022/10/30 06:57:29;;;;;;;11.20;6.50;;;11.80;99.90;;;;;;5084028;28;20297;-70
2022/10/30 07:00:22;;;;;;;12.00;6.50;;;11.90;56.40;;;;;;5095453;28;20209;-70
2022/10/30 07:03:19;;;;;;;12.87;7.23;;;11.90;1.00;;;;;;5043505;28;20303;-69
2022/10/30 07:05:46;;;;;;;12.97;7.20;;;11.90;1.00;;;;;;5079967;28;20652;-70
2022/10/30 07:08:13;;;;;;;15.70;8.27;;;11.90;1.00;;;;;;5065645;28;20194;-71
2022/10/30 07:10:41;;;;;;;14.53;8.30;;;12.10;1.00;;;;;;5089238;28;20710;-70
2022/10/30 07:13:33;;;;;;;18.50;9.00;;;12.20;1.00;;;;;;5082779;28;20189;-70
2022/10/30 07:16:23;;;;;;;13.37;8.33;;;12.30;1.00;;;;;;5062465;28;20210;-67
2022/10/30 07:18:51;;;;;;;13.63;8.20;;;12.50;1.00;;;;;;5071496;28;20208;-67
2022/10/30 07:21:18;;;;;;;21.00;8.33;;;12.50;1.00;;;;;;5064725;28;20201;-71
2022/10/30 07:23:45;;;;;;;12.27;6.90;;;12.60;1.00;;;;;;5100286;28;20209;-68
2022/10/30 07:26:21;;;;;;;15.53;6.37;;;12.80;1.00;;;;;;5082637;28;20366;-69
2022/10/30 07:28:49;;;;;;;12.50;6.80;;;12.80;99.90;;;;;;5081044;28;20217;-71
2022/10/30 07:31:24;;;;;;;12.17;7.33;;;12.90;99.90;;;;;;5087432;28;20709;-72
2022/10/30 07:34:34;;;;;;;18.50;8.87;;;13.10;99.90;;;;;;5073497;28;20213;-71
2022/10/30 07:37:19;;;;;;;23.13;8.63;;;13.20;99.90;;;;;;5088211;28;20229;-70
2022/10/30 07:40:07;;;;;;;14.97;7.87;;;13.30;99.90;;;;;;5085739;28;20206;-69
2022/10/30 07:42:58;;;;;;;14.50;7.33;;;13.40;99.90;;;;;;5082490;28;20202;-70
2022/10/30 07:45:45;;;;;;;14.13;7.70;;;13.60;99.90;;;;;;5081316;28;20320;-69
2022/10/30 07:48:34;;;;;;;14.73;7.97;;;13.70;99.90;;;;;;5082922;28;20567;-69
2022/10/30 07:51:20;;;;;;;18.23;8.00;;;13.90;99.90;;;;;;5081189;28;20218;-69
2022/10/30 07:53:48;;;;;;;17.93;8.00;;;14.00;99.90;;;;;;5088438;28;20194;-68
2022/10/30 07:56:15;;;;;;;14.47;8.77;;;14.10;99.90;;;;;;5066665;28;20297;-69
2022/10/30 07:58:51;;;;;;;16.00;8.03;;;14.10;99.90;;;;;;5090046;28;20710;-69
2022/10/30 08:01:18;;;;;;;14.40;8.33;;;14.30;99.90;;;;;;5098747;28;20202;-68
2022/10/30 08:03:45;;;;;;;12.47;7.73;;;14.40;99.90;;;;;;5071002;28;20202;-68
2022/10/30 08:06:25;;;;;;;16.27;8.23;;;14.40;99.90;;;;;;5081228;28;20197;-69
2022/10/30 08:08:53;;;;;;;14.20;8.15;;;14.50;99.90;;;;;;5098863;28;20792;-69
2022/10/30 08:11:25;;;;;;;13.77;8.20;;;14.70;94.90;;;;;;5088187;28;20275;-70
2022/10/30 08:13:53;;;;;;;17.77;7.50;;;14.90;45.50;;;;;;5090770;28;20194;-70
2022/10/30 08:16:20;;;;;;;18.25;8.25;;;15.00;2.80;;;;;;5075045;28;20246;-70
2022/10/30 08:18:50;;;;;;;15.27;7.00;;;15.20;1.00;;;;;;5074180;28;20849;-70
2022/10/30 08:21:20;;;;;;;20.60;8.05;;;15.30;1.00;;;;;;5100813;28;20213;-69
2022/10/30 08:23:56;;;;;;;14.88;7.03;;;15.30;1.00;;;;;;5101053;28;20212;-70
2022/10/30 08:26:26;;;;;;;13.85;7.72;;;15.40;2.20;;;;;;5084679;28;20230;-70
2022/10/30 08:28:53;;;;;;;20.30;7.70;;;15.50;1.00;;;;;;5085496;28;20279;-70
2022/10/30 08:31:21;;;;;;;14.07;7.22;;;15.70;1.00;;;;;;5084596;28;20185;-70
2022/10/30 08:34:01;;;;;;;13.98;7.15;;;15.90;1.00;;;;;;5088224;28;20679;-71
2022/10/30 08:36:35;;;;;;;13.65;6.88;;;16.10;1.00;;;;;;5083628;28;20225;-71
2022/10/30 08:39:03;;;;;;;18.67;6.60;;;16.30;1.00;;;;;;5091938;28;20204;-70
2022/10/30 08:41:49;;;;;;;11.80;6.47;;;16.50;1.00;;;;;;5085438;28;20197;-69
2022/10/30 08:44:17;;;;;;;12.10;6.72;;;16.70;1.00;;;;;;5085937;28;20660;-69
2022/10/30 08:47:10;;;;;;;12.55;6.32;;;16.90;1.00;;;;;;5103085;28;20296;-70
2022/10/30 08:49:38;;;;;;;15.45;6.25;;;17.10;1.00;;;;;;5084343;28;20211;-70
2022/10/30 08:52:09;;;;;;;14.00;6.70;;;17.40;1.00;;;;;;5074887;28;20607;-70
2022/10/30 08:54:37;;;;;;;9.85;5.63;;;20.50;1.00;;;;;;5104107;28;20190;-69
2022/10/30 08:57:05;;;;;;;11.93;5.68;;;23.80;1.00;;;;;;5090075;28;20732;-68
2022/10/30 08:59:31;;;;;;;12.05;5.20;;;25.10;1.00;;;;;;5091369;28;20514;-70
2022/10/30 09:02:00;;;;;;;12.15;5.90;;;26.90;1.00;;;;;;5083743;28;20198;-71
2022/10/30 09:04:56;;;;;;;16.45;5.40;;;29.50;1.00;;;;;;5101883;28;20225;-71
2022/10/30 09:07:47;;;;;;;12.95;4.93;;;31.00;1.00;;;;;;5092888;28;20231;-70
2022/10/30 09:10:39;;;;;;;14.45;4.82;;;31.80;1.00;;;;;;5101202;28;20202;-71
2022/10/30 09:13:08;;;;;;;14.82;5.35;;;32.50;1.00;;;;;;5073658;28;20254;-70
2022/10/30 09:15:35;;;;;;;11.13;4.75;;;32.40;1.00;;;;;;5099789;28;20233;-71
2022/10/30 09:18:04;;;;;;;10.57;4.65;;;32.70;1.00;;;;;;5090335;28;20187;-70
2022/10/30 09:20:31;;;;;;;12.60;4.65;;;33.00;1.00;;;;;;5082129;28;20240;-71
2022/10/30 09:22:59;;;;;;;16.38;5.13;;;33.40;1.00;;;;;;5082021;28;20198;-70
2022/10/30 09:25:27;;;;;;;12.23;4.82;;;32.10;1.00;;;;;;5063747;28;20220;-71
2022/10/30 09:28:06;;;;;;;11.48;5.07;;;32.00;1.00;;;;;;5095158;28;20246;-72
2022/10/30 09:30:51;;;;;;;17.85;5.05;;;30.40;1.00;;;;;;5079631;28;20567;-72
2022/10/30 09:33:20;;;;;;;10.93;4.22;;;30.70;1.00;;;;;;5080123;28;20194;-70
2022/10/30 09:36:06;;;;;;;13.25;4.95;;;31.50;1.00;;;;;;5081108;28;20225;-70
2022/10/30 09:38:33;;;;;;;18.20;4.60;;;31.60;1.00;;;;;;5074989;28;20202;-70
2022/10/30 09:41:12;;;;;;;10.68;4.85;;;33.40;1.00;;;;;;5093310;28;20206;-71
2022/10/30 09:43:42;;;;;;;18.17;5.43;;;34.10;1.00;;;;;;5078106;28;20207;-72
2022/10/30 09:46:28;;;;;;;15.25;4.93;;;30.70;1.00;;;;;;5078326;28;20257;-69
2022/10/30 09:49:17;;;;;;;11.93;4.60;;;30.80;1.00;;;;;;5075920;28;20235;-68
2022/10/30 09:52:12;;;;;;;11.25;4.65;;;31.10;1.00;;;;;;5081600;28;20203;-68
2022/10/30 09:55:00;;;;;;;16.45;5.10;;;28.80;1.00;;;;;;5078858;28;20198;-69
2022/10/30 09:57:50;;;;;;;12.77;4.60;;;28.60;1.00;;;;;;5095147;28;20198;-68
2022/10/30 10:00:21;;;;;;;13.23;5.22;;;29.10;1.00;;;;;;5038893;28;20791;-69
2022/10/30 10:02:59;;;;;;;12.38;4.95;;;30.70;1.00;;;;;;5077290;28;20202;-68
2022/10/30 10:05:53;;;;;;;13.10;4.82;;;29.30;1.00;;;;;;5078290;28;20233;-67
2022/10/30 10:09:13;;;;;;;8.60;4.40;;;30.90;1.00;;;;;;5072117;28;20272;-68
2022/10/30 10:12:12;;;;;;;13.57;5.53;;;30.60;1.00;;;;;;5081201;28;20672;-68
2022/10/30 10:14:45;;;;;;;12.43;4.47;;;30.30;1.00;;;;;;5078719;28;20195;-67
2022/10/30 10:17:18;;;;;;;10.98;4.50;;;29.90;1.00;;;;;;5084762;28;20190;-67
2022/10/30 10:20:05;;;;;;;19.75;5.30;;;29.90;1.00;;;;;;5077776;28;20281;-68
2022/10/30 10:22:42;;;;;;;10.88;4.47;;;29.90;1.00;;;;;;5080800;28;20191;-68
2022/10/30 10:25:14;;;;;;;12.40;4.57;;;31.40;1.00;;;;;;5078481;28;20307;-67
2022/10/30 10:27:51;;;;;;;16.27;4.95;;;32.00;1.00;;;;;;5083843;28;20226;-67
2022/10/30 10:30:20;;;;;;;9.80;4.82;;;32.90;1.00;;;;;;5074872;28;20565;-68
2022/10/30 10:33:06;;;;;;;14.77;4.60;;;29.40;1.00;;;;;;5065224;28;20673;-68
2022/10/30 10:36:10;;;;;;;11.77;4.80;;;32.50;1.00;;;;;;5077751;28;20186;-69
2022/10/30 10:38:58;;;;;;;14.13;4.78;;;33.40;1.00;;;;;;5078641;28;20201;-68
2022/10/30 10:41:49;;;;;;;12.90;4.10;;;32.50;1.00;;;;;;5069661;28;21096;-68
2022/10/30 10:44:47;;;;;;;12.10;4.78;;;33.20;1.00;;;;;;5094011;28;20534;-68
2022/10/30 10:47:55;;;;;;;17.02;5.10;;;33.80;1.00;;;;;;5075834;28;20215;-69
2022/10/30 10:50:25;;;;;;;14.13;4.75;;;31.50;1.00;;;;;;5076514;28;20256;-68
2022/10/30 10:53:19;;;;;;;13.15;5.25;;;31.70;1.00;;;;;;5076535;28;20213;-69
2022/10/30 10:55:51;;;;;;;16.63;4.72;;;31.90;1.00;;;;;;5074700;28;20187;-69
2022/10/30 10:58:29;;;;;;;16.65;4.93;;;33.50;1.00;;;;;;5078131;28;20571;-67
2022/10/30 11:00:58;;;;;;;13.52;4.47;;;34.30;1.00;;;;;;5077916;28;20228;-67
2022/10/30 11:03:28;;;;;;;12.65;4.70;;;30.50;1.00;;;;;;5076562;28;20609;-68
2022/10/30 11:06:10;;;;;;;16.73;5.30;;;30.60;1.00;;;;;;5078228;28;20217;-67
2022/10/30 11:08:37;;;;;;;12.38;4.95;;;30.70;1.00;;;;;;5082546;28;20197;-69
2022/10/30 11:11:06;;;;;;;12.73;4.32;;;32.60;1.00;;;;;;5073425;28;20191;-68
2022/10/30 11:13:41;;;;;;;10.85;4.32;;;32.20;1.00;;;;;;5058792;28;20186;-70
2022/10/30 11:16:17;;;;;;;14.93;4.53;;;32.00;1.00;;;;;;5076632;28;20576;-67
2022/10/30 11:18:47;;;;;;;10.52;4.22;;;29.20;1.00;;;;;;5077024;28;20274;-67
2022/10/30 11:21:37;;;;;;;19.17;4.32;;;29.50;1.00;;;;;;5076436;28;20187;-67
2022/10/30 11:24:29;;;;;;;13.77;4.40;;;27.40;1.00;;;;;;5076985;28;20202;-67
2022/10/30 11:26:58;;;;;;;19.33;4.93;;;27.40;1.00;;;;;;5086633;28;20332;-67
2022/10/30 11:29:28;;;;;;;12.38;4.35;;;27.00;1.00;;;;;;5074748;28;20303;-67
2022/10/30 11:32:04;;;;;;;15.02;5.25;;;28.60;1.00;;;;;;5079925;28;20208;-67
2022/10/30 11:34:36;;;;;;;15.00;4.80;;;27.70;1.00;;;;;;5078917;28;20193;-67
2022/10/30 11:37:04;;;;;;;8.25;4.30;;;28.30;1.00;;;;;;5096539;28;20719;-67
2022/10/30 11:39:33;;;;;;;13.68;4.07;;;29.10;1.00;;;;;;5097219;28;20189;-67
2022/10/30 11:42:11;;;;;;;12.15;3.97;;;29.80;1.00;;;;;;5080003;28;20287;-67
2022/10/30 11:44:44;;;;;;;14.75;4.45;;;29.70;1.00;;;;;;5074444;28;20271;-67
2022/10/30 11:47:14;;;;;;;16.35;4.90;;;30.40;1.00;;;;;;5067074;28;20305;-69
2022/10/30 11:49:52;;;;;;;17.02;4.90;;;30.60;1.00;;;;;;5096577;28;20194;-67
2022/10/30 11:52:24;;;;;;;16.10;4.40;;;30.50;1.00;;;;;;5095687;28;20204;-69
2022/10/30 11:55:02;;;;;;;13.90;4.25;;;30.70;1.00;;;;;;5093529;28;20212;-68
2022/10/30 11:57:37;;;;;;;15.18;5.10;;;29.90;1.00;;;;;;5098644;28;20276;-67
2022/10/30 12:00:13;;;;;;;13.25;4.22;;;27.60;1.00;;;;;;5078113;28;20211;-71
2022/10/30 12:02:42;;;;;;;18.10;4.35;;;28.40;1.00;;;;;;5077645;28;20200;-71
2022/10/30 12:05:24;;;;;;;10.68;4.32;;;28.90;1.00;;;;;;5092616;28;20798;-70
2022/10/30 12:07:52;;;;;;;14.85;4.18;;;29.50;1.00;;;;;;5078946;28;20212;-71
2022/10/30 12:10:28;;;;;;;10.32;3.97;;;30.00;1.00;;;;;;5075605;28;20205;-71
2022/10/30 12:12:55;;;;;;;10.30;4.25;;;29.90;1.00;;;;;;5058483;28;20203;-71
2022/10/30 12:15:25;;;;;;;13.52;4.50;;;28.30;1.00;;;;;;5067104;28;20201;-71
2022/10/30 12:17:58;;;;;;;15.60;4.85;;;27.10;1.00;;;;;;5079372;28;20304;-70
2022/10/30 12:20:26;;;;;;;16.80;4.60;;;26.00;1.00;;;;;;5080993;28;20281;-71
2022/10/30 12:22:54;;;;;;;10.90;4.13;;;25.90;1.00;;;;;;5079629;28;20700;-71
2022/10/30 12:25:31;;;;;;;14.75;4.15;;;25.50;1.00;;;;;;5098772;28;20221;-72
2022/10/30 12:28:14;;;;;;;16.13;4.55;;;25.80;1.00;;;;;;5098792;28;20228;-71
2022/10/30 12:31:01;;;;;;;13.60;4.40;;;26.20;1.00;;;;;;5096797;28;20194;-72
2022/10/30 12:33:31;;;;;;;17.38;4.28;;;26.10;1.00;;;;;;5098937;28;20243;-71
2022/10/30 12:36:02;;;;;;;15.55;4.85;;;26.20;1.00;;;;;;5079373;28;20225;-72
2022/10/30 12:38:38;;;;;;;12.13;4.22;;;25.70;1.00;;;;;;5096726;28;20201;-72
2022/10/30 12:41:33;;;;;;;13.55;4.18;;;25.80;1.00;;;;;;5085516;28;20554;-71
2022/10/30 12:44:06;;;;;;;16.23;4.97;;;26.60;1.00;;;;;;5082505;28;20210;-71
2022/10/30 12:47:10;;;;;;;10.80;4.10;;;27.10;1.00;;;;;;5096956;28;20206;-72
2022/10/30 12:50:06;;;;;;;12.07;4.25;;;27.20;1.00;;;;;;5096285;28;20217;-70
2022/10/30 12:52:39;;;;;;;11.57;4.70;;;27.20;1.00;;;;;;5096110;28;20698;-72
2022/10/30 12:55:16;;;;;;;23.48;4.80;;;26.80;1.00;;;;;;5096375;28;20642;-72
2022/10/30 12:57:57;;;;;;;12.57;4.72;;;26.20;1.00;;;;;;5097058;28;20304;-71
2022/10/30 13:00:27;;;;;;;14.52;4.60;;;25.80;1.00;;;;;;5101373;28;20281;-71
2022/10/30 13:03:03;;;;;;;16.42;5.05;;;25.90;1.00;;;;;;5101864;28;20669;-72
2022/10/30 13:05:36;;;;;;;16.45;4.60;;;25.10;1.00;;;;;;5066116;28;20200;-70
2022/10/30 13:08:18;;;;;;;20.23;4.40;;;25.40;1.00;;;;;;5100518;28;20261;-72
2022/10/30 13:11:09;;;;;;;9.93;4.03;;;25.30;1.00;;;;;;5097806;28;20192;-71
2022/10/30 13:13:42;;;;;;;19.23;4.65;;;25.10;1.00;;;;;;5070974;28;20208;-71
2022/10/30 13:16:27;;;;;;;13.38;4.47;;;24.80;1.00;;;;;;5081100;28;20560;-71
2022/10/30 13:18:56;;;;;;;17.60;4.78;;;25.00;1.00;;;;;;5101841;28;20182;-72
2022/10/30 13:21:43;;;;;;;14.02;4.43;;;25.00;1.00;;;;;;5072819;28;20305;-71